Time;durP1;ratioP1;P1;durP2;ratioP2;P2;SDS_P1;SDS_P2;PMS_P1;PMS_P2;Temp;Humidity;BMP_temperature;BMP_pressure;BME280_temperature;BME280_humidity;BME280_pressure;Samples;Min_cycle;Max_cycle;Signal;HPM_P1;HPM_P2
2022/06/06 08:21:32;;;;;;;3.50;2.17;;;;;;;19.57;55.55;96766.25;2084132;27;20578;-59
2022/06/06 08:22:36;;;;;;;2.85;1.70;;;;;;;19.70;54.56;96766.09;2053614;28;20579;-59
2022/06/06 08:23:40;;;;;;;9.02;1.60;;;;;;;19.85;54.14;96757.94;2053790;28;20200;-59
2022/06/06 08:24:47;;;;;;;1.95;1.45;;;;;;;20.27;53.36;96766.00;2057380;28;20592;-59
2022/06/06 08:25:57;;;;;;;9.43;1.75;;;;;;;20.28;53.31;96756.22;2058739;28;20651;-59
2022/06/06 08:27:01;;;;;;;7.00;1.60;;;;;;;20.42;53.04;96757.75;2060393;28;20217;-59
2022/06/06 08:28:04;;;;;;;2.90;1.60;;;;;;;20.27;52.59;96751.91;2077907;28;20205;-59
2022/06/06 08:29:08;;;;;;;4.78;1.67;;;;;;;20.03;51.88;96752.94;2069195;28;20724;-59
2022/06/06 08:30:11;;;;;;;2.72;1.50;;;;;;;19.84;54.08;96757.09;2068445;28;20190;-61
2022/06/06 08:31:19;;;;;;;5.85;1.70;;;;;;;19.68;52.93;96761.91;2067666;28;20203;-60
2022/06/06 08:32:22;;;;;;;11.38;2.00;;;;;;;19.82;53.26;96747.53;2062785;28;20743;-60
2022/06/06 08:33:25;;;;;;;5.40;1.50;;;;;;;19.75;53.35;96761.28;2069764;28;20209;-60
2022/06/06 08:34:26;;;;;;;6.18;2.58;;;;;;;19.83;53.78;96758.06;2062572;28;20829;-60
2022/06/06 08:35:40;;;;;;;3.85;1.73;;;;;;;19.98;53.40;96755.97;2065552;28;20202;-60
2022/06/06 09:09:27;;;;;;;3.35;1.60;;;;;;;20.52;51.55;96701.16;2108023;27;20573;-60
2022/06/06 09:20:43;;;;;;;2.95;1.25;;;;;;;21.32;50.41;96728.03;2084589;28;20576;-61
2022/06/06 09:22:00;;;;;;;8.65;2.08;;;;;;;21.48;48.86;96726.69;2070458;28;20552;-60
2022/06/06 09:23:23;;;;;;;4.35;1.70;;;;;;;21.41;50.41;96723.72;2086017;28;20201;-60
2022/06/06 09:24:47;;;;;;;5.45;2.53;;;;;;;21.73;49.99;96727.22;2070957;28;20647;-61
2022/06/06 09:26:08;;;;;;;6.07;2.45;;;;;;;21.99;48.50;96730.19;2069550;28;20210;-60
2022/06/06 09:27:43;;;;;;;3.28;1.75;;;;;;;21.91;47.83;96728.22;2065177;28;21052;-60
2022/06/06 09:29:00;;;;;;;3.65;1.40;;;;;;;21.22;48.09;96729.81;2072691;28;20200;-60
2022/06/06 09:30:17;;;;;;;3.65;1.60;;;;;;;21.30;47.98;96726.47;2061754;28;20195;-60
2022/06/06 09:31:56;;;;;;;5.78;1.50;;;;;;;21.37;47.97;96719.66;2062196;28;20191;-60
2022/06/06 09:33:35;;;;;;;2.85;1.25;;;;;;;21.62;46.49;96725.50;2061713;28;20652;-60
2022/06/06 09:35:04;;;;;;;3.40;1.52;;;;;;;21.74;47.18;96724.41;2062098;28;20206;-60
2022/06/06 09:36:18;;;;;;;7.25;1.40;;;;;;;22.11;47.18;96718.44;2062307;28;20620;-60
2022/06/06 09:37:48;;;;;;;2.72;1.30;;;;;;;22.39;46.24;96725.78;2065129;28;20217;-60
2022/06/06 09:39:02;;;;;;;3.55;1.50;;;;;;;22.90;46.06;96721.91;2063265;28;20203;-61
2022/06/06 09:40:16;;;;;;;2.88;1.45;;;;;;;22.65;45.13;96726.00;2061140;28;20214;-61
2022/06/06 09:41:37;;;;;;;1.92;1.13;;;;;;;22.44;46.00;96720.88;2062335;28;20214;-61
2022/06/06 09:42:51;;;;;;;2.78;1.50;;;;;;;22.20;46.55;96719.44;2058954;28;20231;-60
2022/06/06 09:44:03;;;;;;;2.70;1.17;;;;;;;21.80;46.63;96718.56;2060157;28;20714;-63
2022/06/06 09:45:25;;;;;;;9.63;1.30;;;;;;;21.73;47.15;96720.06;2077531;28;20202;-62
2022/06/06 09:46:59;;;;;;;11.70;1.40;;;;;;;21.76;48.19;96716.31;2069207;28;20607;-63
2022/06/06 09:48:22;;;;;;;3.47;1.63;;;;;;;21.50;47.51;96714.94;2062003;28;20207;-63
2022/06/06 09:49:32;;;;;;;3.50;1.50;;;;;;;21.09;47.69;96723.84;2061321;28;20205;-63
2022/06/06 10:16:07;;;;;;;2.33;1.45;;;;;;;21.00;47.21;96707.78;2085321;28;20570;-60
2022/06/06 10:17:20;;;;;;;3.47;1.38;;;;;;;21.28;46.45;96709.81;2074050;28;20244;-60
2022/06/06 10:18:31;;;;;;;5.50;1.70;;;;;;;21.08;46.57;96711.56;2081560;28;20334;-60
2022/06/06 10:19:47;;;;;;;10.32;2.75;;;;;;;20.89;47.69;96713.16;2075998;28;20202;-61
2022/06/06 10:20:57;;;;;;;2.05;1.10;;;;;;;21.00;46.80;96707.78;2073778;28;20245;-60
2022/06/06 10:22:20;;;;;;;3.33;1.27;;;;;;;20.97;46.68;96710.66;2066164;28;20229;-60
2022/06/06 10:23:37;;;;;;;3.88;1.45;;;;;;;20.69;47.54;96704.22;2083651;28;20734;-62
2022/06/06 10:24:50;;;;;;;2.78;1.38;;;;;;;20.83;47.83;96709.19;2072220;28;20213;-62
2022/06/06 10:26:19;;;;;;;6.95;1.42;;;;;;;20.80;47.68;96700.69;2065138;28;20528;-62
2022/06/06 10:27:42;;;;;;;3.00;1.85;;;;;;;20.74;47.90;96701.19;2063700;28;20229;-62
2022/06/06 10:28:50;;;;;;;5.80;1.77;;;;;;;20.89;47.55;96697.22;2078494;28;20205;-62
2022/06/06 10:30:12;;;;;;;6.53;1.50;;;;;;;20.70;46.72;96697.94;2074021;28;20212;-62
2022/06/06 10:31:23;;;;;;;3.60;1.40;;;;;;;20.82;47.02;96696.94;2069736;28;20318;-62
2022/06/06 10:33:02;;;;;;;2.70;1.30;;;;;;;20.79;46.86;96699.00;2073464;28;20232;-62
2022/06/06 10:34:39;;;;;;;2.30;1.20;;;;;;;21.06;45.58;96694.94;2070836;28;20282;-62
2022/06/06 10:49:24;;;;;;;2.38;1.13;;;;;;;20.83;47.29;96681.84;2085858;28;20573;-60
2022/06/06 10:52:45;;;;;;;3.28;1.45;;;;;;;21.28;47.33;96683.28;2069565;28;20222;-60
2022/06/06 10:53:55;;;;;;;4.10;1.85;;;;;;;21.41;47.18;96689.19;2068268;28;20199;-60
2022/06/06 10:55:16;;;;;;;7.05;1.70;;;;;;;21.16;46.18;96682.53;2067792;28;20218;-60
2022/06/06 10:56:33;;;;;;;3.28;1.42;;;;;;;21.49;45.64;96686.69;2067067;28;20201;-60
2022/06/06 10:57:48;;;;;;;2.88;1.30;;;;;;;21.94;44.06;96688.09;2059996;28;20219;-60
2022/06/06 10:59:30;;;;;;;5.60;1.25;;;;;;;22.41;44.19;96683.91;2060348;28;20607;-60
2022/06/06 11:01:04;;;;;;;3.85;1.10;;;;;;;22.12;42.52;96669.63;2060564;28;20194;-60
2022/06/06 11:02:20;;;;;;;4.47;1.30;;;;;;;22.46;42.87;96687.81;2061193;28;20232;-61
2022/06/06 11:04:04;;;;;;;2.25;1.10;;;;;;;22.69;41.09;96670.69;2077841;28;20289;-60
2022/06/06 11:05:30;;;;;;;2.10;1.00;;;;;;;22.44;41.00;96681.78;2067563;28;20205;-61
2022/06/06 11:06:51;;;;;;;3.05;1.55;;;;;;;22.44;41.58;96678.31;2060051;28;20206;-63
2022/06/06 11:07:55;;;;;;;3.08;1.27;;;;;;;22.92;40.80;96680.03;2068000;28;20198;-62
2022/06/06 11:09:17;;;;;;;3.75;1.23;;;;;;;22.90;40.71;96676.66;2061759;28;20286;-63
2022/06/06 11:10:44;;;;;;;2.50;1.40;;;;;;;22.95;40.42;96678.88;2067801;28;20253;-63
2022/06/06 11:12:07;;;;;;;2.25;1.02;;;;;;;22.60;41.33;96673.25;2067344;28;20229;-63
2022/06/06 11:13:24;;;;;;;3.65;1.55;;;;;;;22.20;41.87;96671.56;2077192;28;20234;-62
2022/06/06 11:14:36;;;;;;;2.75;1.35;;;;;;;21.96;41.44;96672.00;2073540;28;20252;-62
2022/06/06 11:15:53;;;;;;;1.60;1.10;;;;;;;21.59;42.06;96668.16;2066944;28;20670;-63
2022/06/06 11:17:35;;;;;;;2.55;1.20;;;;;;;21.89;41.99;96662.88;2061716;28;20217;-63
2022/06/06 11:18:58;;;;;;;3.22;1.52;;;;;;;21.79;43.31;96668.22;2074483;28;20688;-62
2022/06/06 11:57:01;;;;;;;3.72;1.58;;;;;;;20.71;46.26;96652.72;2074822;27;20924;-62
2022/06/06 11:58:13;;;;;;;7.60;2.33;;;;;;;21.10;44.09;96648.56;2071972;28;20204;-63
2022/06/06 11:59:50;;;;;;;4.85;1.30;;;;;;;21.27;43.48;96661.19;2054668;28;20203;-62
2022/06/06 12:01:00;;;;;;;2.65;1.30;;;;;;;21.45;43.12;96657.91;2053845;28;20347;-62
2022/06/06 12:02:23;;;;;;;4.00;1.50;;;;;;;21.59;43.68;96654.06;2054757;28;20223;-62
2022/06/06 12:04:04;;;;;;;2.95;1.70;;;;;;;21.82;43.28;96662.59;2053677;28;20636;-62
2022/06/06 12:05:30;;;;;;;1.83;1.30;;;;;;;22.23;43.63;96659.81;2053564;28;20211;-62
2022/06/06 12:06:53;;;;;;;3.13;1.58;;;;;;;22.43;41.51;96660.66;2047631;28;20203;-62
2022/06/06 12:08:18;;;;;;;1.80;1.00;;;;;;;22.80;40.50;96652.75;2102521;28;20196;-62
2022/06/06 12:09:46;;;;;;;3.60;1.20;;;;;;;22.57;41.29;96651.41;2067319;28;20202;-62
2022/06/06 12:11:10;;;;;;;3.72;1.63;;;;;;;22.75;41.92;96652.31;2087084;28;20748;-62
2022/06/06 12:12:11;;;;;;;2.67;1.45;;;;;;;22.52;41.86;96646.50;2083115;28;20602;-62
2022/06/06 12:13:15;;;;;;;2.50;1.05;;;;;;;22.65;42.23;96646.19;2108562;28;20206;-62
2022/06/06 12:14:32;;;;;;;4.82;1.30;;;;;;;22.57;42.68;96644.25;2066512;28;20207;-62
2022/06/06 12:16:11;;;;;;;3.45;1.20;;;;;;;22.20;42.73;96647.63;2057897;28;20211;-61
2022/06/06 12:17:38;;;;;;;3.55;1.90;;;;;;;21.93;42.77;96637.69;2071792;28;20277;-61
2022/06/06 14:41:03;;;;;;;3.25;1.30;;;;;;;20.06;53.29;96618.38;2085996;28;20557;-63
2022/06/06 14:42:09;;;;;;;5.05;1.98;;;;;;;20.33;52.91;96614.38;2060090;28;20225;-63
2022/06/06 14:43:10;;;;;;;7.13;1.65;;;;;;;20.39;52.47;96613.00;2069996;28;20199;-63
2022/06/06 14:44:13;;;;;;;5.18;1.80;;;;;;;20.05;52.94;96615.88;2068017;28;20264;-62
2022/06/06 14:45:28;;;;;;;3.13;1.55;;;;;;;20.33;53.36;96624.16;2066769;28;20560;-63
2022/06/06 14:46:45;;;;;;;4.05;1.40;;;;;;;20.65;51.88;96620.56;2065330;28;20288;-63
2022/06/06 14:47:53;;;;;;;3.38;1.63;;;;;;;21.06;51.09;96612.66;2066976;28;20260;-63
2022/06/06 14:49:01;;;;;;;3.95;1.80;;;;;;;21.58;51.12;96623.16;2063937;28;20638;-65
2022/06/06 14:51:42;;;;;;;7.53;1.42;;;;;;;21.52;50.15;96616.53;2058629;28;20879;-65
2022/06/06 14:52:54;;;;;;;6.57;1.80;;;;;;;21.40;50.88;96617.63;2073232;28;20829;-65
2022/06/06 14:54:02;;;;;;;5.70;1.48;;;;;;;21.16;50.99;96616.19;2070566;28;20214;-65
2022/06/06 14:55:06;;;;;;;2.50;1.52;;;;;;;21.29;51.44;96611.47;2068679;28;20197;-65
2022/06/06 14:56:24;;;;;;;2.83;1.73;;;;;;;21.61;51.06;96607.78;2063561;28;20205;-65
2022/06/06 14:57:28;;;;;;;4.75;1.70;;;;;;;21.33;50.20;96610.22;2062964;28;20229;-65
2022/06/06 14:58:33;;;;;;;3.65;1.40;;;;;;;21.33;50.68;96607.56;2075704;28;20185;-65
2022/06/06 14:59:38;;;;;;;3.97;1.40;;;;;;;21.43;50.48;96604.91;2065626;28;20198;-65
2022/06/06 15:00:54;;;;;;;7.20;2.10;;;;;;;21.29;50.56;96600.00;2062173;28;20571;-65
2022/06/06 15:02:21;;;;;;;4.55;1.60;;;;;;;21.18;50.81;96600.97;2056006;28;20284;-65
2022/06/06 15:03:37;;;;;;;8.82;2.03;;;;;;;21.23;50.63;96605.84;2071905;28;20288;-64
2022/06/06 15:04:40;;;;;;;2.83;1.55;;;;;;;21.20;50.23;96605.16;2064257;28;20194;-64
